Time,TemperatureF,DewpointF,PressureIn,WindDirection,WindDirectionDegrees,WindSpeedMPH,WindSpeedGustMPH,Humidity,HourlyPrecipIn,Conditions,Clouds,dailyrainin,SoftwareType,DateUTC
2013-03-31 00:01:00,32.4,30.1,29.87,West,265,6.0,7.0,91,0.00,,---,0.43,VWS V13.01,2013-03-31 05:01:00,
2013-03-31 00:06:00,32.5,30.4,29.87,West,265,4.0,6.0,92,0.00,,---,0.00,VWS V13.01,2013-03-31 05:06:00,
2013-03-31 00:11:00,32.6,30.5,29.86,West,273,1.0,8.0,92,0.00,,---,0.00,VWS V13.01,2013-03-31 05:11:00,
2013-03-31 00:16:00,32.6,30.3,29.86,West,271,4.0,9.0,91,0.00,,---,0.00,VWS V13.01,2013-03-31 05:16:00,
2013-03-31 00:21:00,32.5,30.2,29.86,WNW,292,4.0,6.0,91,0.00,,---,0.00,VWS V13.01,2013-03-31 05:21:00,
2013-03-31 00:26:00,32.5,30.2,29.86,WNW,286,2.0,7.0,91,0.00,,---,0.00,VWS V13.01,2013-03-31 05:26:00,
2013-03-31 00:31:00,32.3,30.0,29.86,WSW,254,4.0,7.0,91,0.00,,---,0.00,VWS V13.01,2013-03-31 05:31:00,
2013-03-31 00:36:00,32.3,30.0,29.86,West,267,4.0,9.0,91,0.00,,---,0.00,VWS V13.01,2013-03-31 05:36:00,
2013-03-31 00:41:00,32.2,29.9,29.86,WNW,285,1.0,9.0,91,0.00,,---,0.00,VWS V13.01,2013-03-31 05:41:00,
2013-03-31 00:46:00,32.1,29.8,29.86,West,269,3.0,9.0,91,0.00,,---,0.00,VWS V13.01,2013-03-31 05:46:00,
2013-03-31 00:51:00,32.1,29.8,29.86,WSW,250,2.0,7.0,91,0.00,,---,0.00,VWS V13.01,2013-03-31 05:51:00,
2013-03-31 00:56:00,32.0,29.7,29.86,West,267,0.0,7.0,91,0.00,,---,0.00,VWS V13.01,2013-03-31 05:56:00,
2013-03-31 01:01:00,32.1,29.8,29.86,West,278,4.0,10.0,91,0.00,,---,0.00,VWS V13.01,2013-03-31 06:01:00,
2013-03-31 01:06:00,32.1,29.8,29.86,West,268,3.0,6.0,91,0.00,,---,0.00,VWS V13.01,2013-03-31 06:06:00,
2013-03-31 01:11:00,32.1,29.8,29.86,WNW,288,3.0,8.0,91,0.00,,---,0.00,VWS V13.01,2013-03-31 06:11:00,
2013-03-31 01:16:00,32.3,30.0,29.86,West,266,2.0,9.0,91,0.00,,---,0.00,VWS V13.01,2013-03-31 06:16:00,
2013-03-31 01:21:00,32.3,30.0,29.86,WNW,295,2.0,7.0,91,0.00,,---,0.00,VWS V13.01,2013-03-31 06:21:00,
2013-03-31 01:26:00,32.4,30.1,29.86,WSW,256,4.0,8.0,91,0.00,,---,0.00,VWS V13.01,2013-03-31 06:26:00,
2013-03-31 01:31:00,32.5,30.2,29.86,SSW,194,8.0,8.0,91,0.00,,---,0.00,VWS V13.01,2013-03-31 06:31:00,
2013-03-31 01:36:00,32.5,30.2,29.85,West,276,0.0,7.0,91,0.00,,---,0.00,VWS V13.01,2013-03-31 06:36:00,
2013-03-31 01:41:00,32.5,30.2,29.85,West,265,3.0,7.0,91,0.00,,---,0.00,VWS V13.01,2013-03-31 06:41:00,
2013-03-31 01:46:00,32.5,29.9,29.85,West,276,2.0,10.0,90,0.00,,---,0.00,VWS V13.01,2013-03-31 06:46:00,
2013-03-31 01:51:00,32.4,30.1,29.85,West,269,7.0,7.0,91,0.00,,---,0.00,VWS V13.01,2013-03-31 06:51:00,
2013-03-31 01:56:00,32.4,30.1,29.85,West,276,4.0,9.0,91,0.00,,---,0.00,VWS V13.01,2013-03-31 06:56:00,
2013-03-31 02:01:00,32.3,29.7,29.86,West,276,3.0,9.0,90,0.00,,---,0.00,VWS V13.01,2013-03-31 07:01:00,
2013-03-31 02:06:00,32.2,29.6,29.85,West,272,2.0,6.0,90,0.00,,---,0.00,VWS V13.01,2013-03-31 07:06:00,
2013-03-31 02:11:00,31.9,29.3,29.85,West,278,2.0,6.0,90,0.00,,---,0.00,VWS V13.01,2013-03-31 07:11:00,
2013-03-31 02:16:00,31.8,29.2,29.85,WSW,256,0.0,6.0,90,0.00,,---,0.00,VWS V13.01,2013-03-31 07:16:00,
2013-03-31 02:21:00,31.9,29.6,29.85,West,268,2.0,7.0,91,0.00,,---,0.00,VWS V13.01,2013-03-31 07:21:00,
2013-03-31 02:26:00,31.8,29.5,29.85,West,269,3.0,7.0,91,0.00,,---,0.00,VWS V13.01,2013-03-31 07:26:00,
2013-03-31 02:31:00,31.8,29.5,29.85,West,271,1.0,7.0,91,0.00,,---,0.00,VWS V13.01,2013-03-31 07:31:00,
2013-03-31 02:36:00,31.7,29.4,29.85,West,268,0.0,5.0,91,0.00,,---,0.00,VWS V13.01,2013-03-31 07:36:00,
2013-03-31 02:41:00,31.6,29.3,29.85,WSW,254,3.0,7.0,91,0.00,,---,0.00,VWS V13.01,2013-03-31 07:41:00,
2013-03-31 02:46:00,31.6,29.3,29.84,WSW,254,0.0,7.0,91,0.00,,---,0.00,VWS V13.01,2013-03-31 07:46:00,
2013-03-31 02:51:00,31.6,29.3,29.83,WSW,254,0.0,3.0,91,0.00,,---,0.00,VWS V13.01,2013-03-31 07:51:00,
2013-03-31 02:56:00,31.5,29.2,29.84,WSW,254,1.0,4.0,91,0.00,,---,0.00,VWS V13.01,2013-03-31 07:56:00,
2013-03-31 03:01:00,31.5,29.5,29.83,WSW,251,2.0,5.0,92,0.00,,---,0.00,VWS V13.01,2013-03-31 08:01:00,
2013-03-31 03:06:00,31.5,29.5,29.83,WSW,250,2.0,4.0,92,0.00,,---,0.00,VWS V13.01,2013-03-31 08:06:00,
2013-03-31 03:11:00,31.6,29.5,29.84,WSW,248,2.0,6.0,92,0.00,,---,0.00,VWS V13.01,2013-03-31 08:11:00,
2013-03-31 03:16:00,31.6,29.5,29.85,West,280,3.0,6.0,92,0.00,,---,0.00,VWS V13.01,2013-03-31 08:16:00,
2013-03-31 03:21:00,31.6,29.5,29.84,WSW,253,6.0,7.0,92,0.00,,---,0.00,VWS V13.01,2013-03-31 08:21:00,
2013-03-31 03:26:00,31.6,29.5,29.84,West,259,2.0,7.0,92,0.00,,---,0.00,VWS V13.01,2013-03-31 08:26:00,
2013-03-31 03:31:00,31.5,29.5,29.84,West,263,4.0,10.0,92,0.00,,---,0.00,VWS V13.01,2013-03-31 08:31:00,
2013-03-31 03:37:00,31.4,29.6,29.84,WSW,257,0.0,9.0,93,0.00,,---,0.00,VWS V13.01,2013-03-31 08:37:00,
2013-03-31 03:42:00,31.5,29.7,29.84,WNW,284,5.0,13.0,93,0.00,,---,0.00,VWS V13.01,2013-03-31 08:42:00,
2013-03-31 03:47:00,31.6,29.8,29.83,WSW,254,6.0,6.0,93,0.00,,---,0.00,VWS V13.01,2013-03-31 08:47:00,
2013-03-31 03:52:00,31.7,29.9,29.83,West,261,2.0,7.0,93,0.00,,---,0.00,VWS V13.01,2013-03-31 08:52:00,
2013-03-31 03:57:00,31.7,29.9,29.83,West,260,1.0,9.0,93,0.00,,---,0.00,VWS V13.01,2013-03-31 08:57:00,
2013-03-31 04:02:00,31.7,29.9,29.83,West,268,4.0,7.0,93,0.00,,---,0.00,VWS V13.01,2013-03-31 09:02:00,
2013-03-31 04:07:00,31.8,30.3,29.83,West,261,4.0,8.0,94,0.00,,---,0.00,VWS V13.01,2013-03-31 09:07:00,
2013-03-31 04:12:00,31.8,30.3,29.83,West,261,2.0,8.0,94,0.00,,---,0.00,VWS V13.01,2013-03-31 09:12:00,
2013-03-31 04:17:00,31.9,30.4,29.83,WNW,284,5.0,9.0,94,0.00,,---,0.00,VWS V13.01,2013-03-31 09:17:00,
2013-03-31 04:22:00,31.8,30.0,29.83,West,271,10.0,12.0,93,0.00,,---,0.00,VWS V13.01,2013-03-31 09:22:00,
2013-03-31 04:27:00,31.8,30.0,29.83,West,275,4.0,12.0,93,0.00,,---,0.00,VWS V13.01,2013-03-31 09:27:00,
2013-03-31 04:32:00,31.8,30.0,29.83,West,265,4.0,5.0,93,0.00,,---,0.00,VWS V13.01,2013-03-31 09:32:00,
2013-03-31 04:37:00,31.7,29.9,29.82,WNW,286,3.0,9.0,93,0.00,,---,0.00,VWS V13.01,2013-03-31 09:37:00,
2013-03-31 04:42:00,31.7,29.9,29.82,SW,229,5.0,10.0,93,0.00,,---,0.00,VWS V13.01,2013-03-31 09:42:00,
2013-03-31 04:47:00,31.7,29.9,29.82,WSW,253,4.0,6.0,93,0.00,,---,0.00,VWS V13.01,2013-03-31 09:47:00,
2013-03-31 04:52:00,31.7,29.9,29.82,West,275,0.0,6.0,93,0.00,,---,0.00,VWS V13.01,2013-03-31 09:52:00,
2013-03-31 04:57:00,31.8,30.0,29.82,West,270,6.0,13.0,93,0.00,,---,0.00,VWS V13.01,2013-03-31 09:57:00,
2013-03-31 05:02:00,31.8,30.0,29.82,West,270,5.0,9.0,93,0.00,,---,0.00,VWS V13.01,2013-03-31 10:02:00,
2013-03-31 05:07:00,31.8,30.3,29.82,West,279,5.0,13.0,94,0.00,,---,0.00,VWS V13.01,2013-03-31 10:07:00,
2013-03-31 05:12:00,31.9,30.1,29.82,WNW,283,4.0,13.0,93,0.00,,---,0.00,VWS V13.01,2013-03-31 10:12:00,
2013-03-31 05:17:00,31.9,30.1,29.82,WSW,245,2.0,5.0,93,0.00,,---,0.00,VWS V13.01,2013-03-31 10:17:00,
2013-03-31 05:22:00,31.9,30.1,29.82,West,275,6.0,12.0,93,0.00,,---,0.00,VWS V13.01,2013-03-31 10:22:00,
2013-03-31 05:28:00,32.0,30.5,29.82,WSW,256,3.0,12.0,94,0.00,,---,0.00,VWS V13.01,2013-03-31 10:28:00,
2013-03-31 05:33:00,32.0,30.2,29.82,West,272,0.0,1.0,93,0.00,,---,0.00,VWS V13.01,2013-03-31 10:33:00,
2013-03-31 05:38:00,32.1,30.3,29.82,West,263,3.0,7.0,93,0.00,,---,0.00,VWS V13.01,2013-03-31 10:38:00,
2013-03-31 05:43:00,32.1,30.3,29.82,West,269,4.0,10.0,93,0.00,,---,0.00,VWS V13.01,2013-03-31 10:43:00,
2013-03-31 05:47:00,32.1,30.3,29.82,WSW,241,0.0,4.0,93,0.00,,---,0.00,VWS V13.01,2013-03-31 10:47:00,
2013-03-31 05:52:00,32.1,30.3,29.81,West,263,0.0,6.0,93,0.00,,---,0.00,VWS V13.01,2013-03-31 10:52:00,
2013-03-31 05:57:00,32.0,30.2,29.82,SW,229,6.0,7.0,93,0.00,,---,0.00,VWS V13.01,2013-03-31 10:57:00,
2013-03-31 06:02:00,31.9,30.1,29.82,WSW,250,1.0,4.0,93,0.00,,---,0.00,VWS V13.01,2013-03-31 11:02:00,
2013-03-31 06:07:00,31.9,30.1,29.82,WNW,283,4.0,8.0,93,0.00,,---,0.00,VWS V13.01,2013-03-31 11:07:00,
2013-03-31 06:12:00,31.8,30.0,29.82,West,259,0.0,8.0,93,0.00,,---,0.00,VWS V13.01,2013-03-31 11:12:00,
2013-03-31 06:17:00,31.7,29.9,29.82,WSW,246,4.0,6.0,93,0.00,,---,0.00,VWS V13.01,2013-03-31 11:17:00,
2013-03-31 06:23:00,31.8,30.0,29.82,WSW,242,6.0,10.0,93,0.00,,---,0.00,VWS V13.01,2013-03-31 11:23:00,
2013-03-31 06:28:00,31.9,30.1,29.81,WSW,244,1.0,10.0,93,0.00,,---,0.00,VWS V13.01,2013-03-31 11:28:00,
2013-03-31 06:33:00,31.9,30.1,29.81,WSW,238,5.0,6.0,93,0.00,,---,0.00,VWS V13.01,2013-03-31 11:33:00,
2013-03-31 06:38:00,31.9,30.1,29.81,SW,235,1.0,9.0,93,0.00,,---,0.00,VWS V13.01,2013-03-31 11:38:00,
2013-03-31 06:43:00,32.0,30.2,29.81,SW,225,8.0,9.0,93,0.00,,---,0.00,VWS V13.01,2013-03-31 11:43:00,
2013-03-31 06:48:00,32.0,30.2,29.81,WSW,242,5.0,5.0,93,0.00,,---,0.00,VWS V13.01,2013-03-31 11:48:00,
2013-03-31 06:53:00,32.0,30.2,29.81,SW,230,3.0,9.0,93,0.00,,---,0.00,VWS V13.01,2013-03-31 11:53:00,
2013-03-31 06:58:00,32.1,30.3,29.81,WSW,244,2.0,9.0,93,0.00,,---,0.00,VWS V13.01,2013-03-31 11:58:00,
2013-03-31 07:03:00,32.2,30.4,29.81,West,261,0.0,4.0,93,0.00,,---,0.00,VWS V13.01,2013-03-31 12:03:00,
2013-03-31 07:08:00,32.3,30.5,29.81,West,263,2.0,7.0,93,0.00,,---,0.00,VWS V13.01,2013-03-31 12:08:00,
2013-03-31 07:13:00,32.4,30.3,29.81,WSW,254,5.0,7.0,92,0.00,,---,0.00,VWS V13.01,2013-03-31 12:13:00,
2013-03-31 07:18:00,32.5,30.7,29.81,West,264,2.0,5.0,93,0.00,,---,0.00,VWS V13.01,2013-03-31 12:18:00,
2013-03-31 07:23:00,32.6,30.5,29.81,West,261,3.0,10.0,92,0.00,,---,0.00,VWS V13.01,2013-03-31 12:23:00,
2013-03-31 07:28:00,32.7,30.6,29.81,WSW,251,0.0,10.0,92,0.00,,---,0.00,VWS V13.01,2013-03-31 12:28:00,
2013-03-31 07:33:00,32.8,30.7,29.81,West,280,5.0,7.0,92,0.00,,---,0.00,VWS V13.01,2013-03-31 12:33:00,
2013-03-31 07:38:00,32.9,30.8,29.81,West,278,7.0,11.0,92,0.00,,---,0.00,VWS V13.01,2013-03-31 12:38:00,
2013-03-31 07:43:00,33.1,30.8,29.82,WNW,291,7.0,11.0,91,0.00,,---,0.00,VWS V13.01,2013-03-31 12:43:00,
2013-03-31 07:48:00,33.3,31.0,29.82,WNW,292,4.0,9.0,91,0.00,,---,0.00,VWS V13.01,2013-03-31 12:48:00,
2013-03-31 07:53:00,33.4,30.8,29.81,WNW,296,5.0,9.0,90,0.00,,---,0.00,VWS V13.01,2013-03-31 12:53:00,
2013-03-31 07:58:00,33.4,30.8,29.82,West,281,7.0,9.0,90,0.00,,---,0.00,VWS V13.01,2013-03-31 12:58:00,
2013-03-31 08:03:00,33.5,30.9,29.82,West,279,5.0,10.0,90,0.00,,---,0.00,VWS V13.01,2013-03-31 13:03:00,
2013-03-31 08:08:00,33.6,31.0,29.81,West,273,4.0,12.0,90,0.00,,---,0.00,VWS V13.01,2013-03-31 13:08:00,
2013-03-31 08:13:00,33.7,30.8,29.81,West,275,3.0,12.0,89,0.00,,---,0.00,VWS V13.01,2013-03-31 13:13:00,
2013-03-31 08:18:00,33.7,31.1,29.82,WNW,287,4.0,9.0,90,0.00,,---,0.00,VWS V13.01,2013-03-31 13:18:00,
2013-03-31 08:23:00,33.7,30.8,29.82,West,273,3.0,12.0,89,0.00,,---,0.00,VWS V13.01,2013-03-31 13:23:00,
2013-03-31 08:28:00,33.8,30.9,29.82,West,277,5.0,16.0,89,0.00,,---,0.00,VWS V13.01,2013-03-31 13:28:00,
2013-03-31 08:33:00,33.8,30.9,29.81,West,263,10.0,10.0,89,0.00,,---,0.00,VWS V13.01,2013-03-31 13:33:00,
2013-03-31 08:38:00,33.9,31.0,29.81,WNW,298,4.0,11.0,89,0.00,,---,0.00,VWS V13.01,2013-03-31 13:38:00,
2013-03-31 08:43:00,34.1,30.9,29.82,West,279,3.0,11.0,88,0.00,,---,0.00,VWS V13.01,2013-03-31 13:43:00,
2013-03-31 08:48:00,34.2,31.0,29.82,WNW,287,3.0,7.0,88,0.00,,---,0.00,VWS V13.01,2013-03-31 13:48:00,
2013-03-31 08:53:00,34.3,31.1,29.82,WNW,300,6.0,12.0,88,0.00,,---,0.00,VWS V13.01,2013-03-31 13:53:00,
2013-03-31 08:58:00,34.3,31.1,29.82,NW,313,2.0,13.0,88,0.00,,---,0.00,VWS V13.01,2013-03-31 13:58:00,
2013-03-31 09:03:00,34.3,31.1,29.82,West,269,6.0,7.0,88,0.00,,---,0.00,VWS V13.01,2013-03-31 14:03:00,
2013-03-31 09:08:00,34.4,31.2,29.82,West,270,7.0,11.0,88,0.00,,---,0.00,VWS V13.01,2013-03-31 14:08:00,
2013-03-31 09:13:00,34.4,30.9,29.82,WNW,299,1.0,12.0,87,0.00,,---,0.00,VWS V13.01,2013-03-31 14:13:00,
2013-03-31 09:18:00,34.4,30.9,29.82,NW,304,7.0,7.0,87,0.00,,---,0.00,VWS V13.01,2013-03-31 14:18:00,
2013-03-31 09:23:00,34.4,30.6,29.82,WNW,296,6.0,11.0,86,0.00,,---,0.00,VWS V13.01,2013-03-31 14:23:00,
2013-03-31 09:28:00,34.4,30.6,29.82,WNW,290,4.0,11.0,86,0.00,,---,0.00,VWS V13.01,2013-03-31 14:28:00,
2013-03-31 09:33:00,34.4,30.6,29.83,NNW,329,5.0,14.0,86,0.00,,---,0.00,VWS V13.01,2013-03-31 14:33:00,
2013-03-31 09:38:00,34.6,30.9,29.83,West,276,2.0,14.0,86,0.00,,---,0.00,VWS V13.01,2013-03-31 14:38:00,
2013-03-31 09:43:00,34.9,30.9,29.83,WNW,282,3.0,14.0,85,0.00,,---,0.00,VWS V13.01,2013-03-31 14:43:00,
2013-03-31 09:48:00,35.1,31.0,29.83,NW,313,6.0,9.0,85,0.00,,---,0.00,VWS V13.01,2013-03-31 14:48:00,
2013-03-31 09:53:00,35.3,31.0,29.83,WSW,253,4.0,9.0,84,0.00,,---,0.00,VWS V13.01,2013-03-31 14:53:00,
2013-03-31 09:58:00,35.4,30.8,29.83,West,277,5.0,13.0,83,0.00,,---,0.00,VWS V13.01,2013-03-31 14:58:00,
2013-03-31 10:03:00,35.8,31.1,29.83,West,260,3.0,10.0,83,0.00,,---,0.00,VWS V13.01,2013-03-31 15:03:00,
2013-03-31 10:08:00,36.2,30.9,29.83,West,267,3.0,11.0,81,0.00,,---,0.00,VWS V13.01,2013-03-31 15:08:00,
2013-03-31 10:13:00,36.4,30.5,29.83,WNW,300,5.0,15.0,79,0.00,,---,0.00,VWS V13.01,2013-03-31 15:13:00,
2013-03-31 10:18:00,36.5,30.3,29.83,WNW,284,6.0,18.0,78,0.00,,---,0.00,VWS V13.01,2013-03-31 15:18:00,
2013-03-31 10:23:00,36.6,30.4,29.84,WNW,301,4.0,18.0,78,0.00,,---,0.00,VWS V13.01,2013-03-31 15:23:00,
2013-03-31 10:28:00,36.7,29.9,29.84,WNW,296,7.0,18.0,76,0.00,,---,0.00,VWS V13.01,2013-03-31 15:28:00,
2013-03-31 10:33:00,36.7,29.9,29.84,WNW,289,2.0,13.0,76,0.00,,---,0.00,VWS V13.01,2013-03-31 15:33:00,
2013-03-31 10:38:00,36.7,30.8,29.84,West,266,7.0,13.0,79,0.00,,---,0.00,VWS V13.01,2013-03-31 15:38:00,
2013-03-31 10:43:00,36.4,30.8,29.84,West,272,4.0,13.0,80,0.00,,---,0.00,VWS V13.01,2013-03-31 15:43:00,
2013-03-31 10:48:00,36.0,29.8,29.85,NW,315,8.0,16.0,78,0.00,,---,0.00,VWS V13.01,2013-03-31 15:48:00,
2013-03-31 10:53:00,35.5,29.3,29.85,WNW,284,11.0,21.0,78,0.00,,---,0.00,VWS V13.01,2013-03-31 15:53:00,
2013-03-31 10:58:00,35.2,28.7,29.85,NW,311,5.0,22.0,77,0.00,,---,0.00,VWS V13.01,2013-03-31 15:58:00,
2013-03-31 11:03:00,35.2,28.4,29.86,NW,309,6.0,14.0,76,0.00,,---,0.00,VWS V13.01,2013-03-31 16:03:00,
2013-03-31 11:08:00,36.2,28.7,29.86,WNW,295,10.0,20.0,74,0.00,,---,0.00,VWS V13.01,2013-03-31 16:08:00,
2013-03-31 11:13:00,37.5,28.6,29.86,NW,325,13.0,20.0,70,0.00,,---,0.00,VWS V13.01,2013-03-31 16:13:00,
2013-03-31 11:18:00,38.1,27.0,29.86,NW,323,3.0,10.0,64,0.00,,---,0.00,VWS V13.01,2013-03-31 16:18:00,
2013-03-31 11:23:00,38.3,25.6,29.86,West,264,9.0,19.0,60,0.00,,---,0.00,VWS V13.01,2013-03-31 16:23:00,
2013-03-31 11:28:00,38.4,25.7,29.87,WNW,296,3.0,19.0,60,0.00,,---,0.00,VWS V13.01,2013-03-31 16:28:00,
2013-03-31 11:33:00,38.4,24.5,29.87,NW,313,12.0,13.0,57,0.00,,---,0.00,VWS V13.01,2013-03-31 16:33:00,
2013-03-31 11:38:00,38.0,24.5,29.87,North,355,12.0,15.0,58,0.00,,---,0.00,VWS V13.01,2013-03-31 16:38:00,
2013-03-31 11:43:00,37.6,24.6,29.87,West,281,13.0,17.0,59,0.00,,---,0.00,VWS V13.01,2013-03-31 16:43:00,
2013-03-31 11:48:00,37.4,24.8,29.88,NW,319,10.0,12.0,60,0.00,,---,0.00,VWS V13.01,2013-03-31 16:48:00,
2013-03-31 11:53:00,37.7,23.9,29.88,NW,305,10.0,17.0,57,0.00,,---,0.00,VWS V13.01,2013-03-31 16:53:00,
2013-03-31 11:58:00,37.6,23.3,29.88,NW,321,10.0,17.0,56,0.00,,---,0.00,VWS V13.01,2013-03-31 16:58:00,
2013-03-31 12:03:00,37.5,23.7,29.88,WNW,296,4.0,10.0,57,0.00,,---,0.00,VWS V13.01,2013-03-31 17:03:00,
2013-03-31 12:08:00,38.2,24.7,29.88,NNW,348,7.0,13.0,58,0.00,,---,0.00,VWS V13.01,2013-03-31 17:08:00,
2013-03-31 12:13:00,37.5,22.8,29.88,WNW,295,14.0,18.0,55,0.00,,---,0.00,VWS V13.01,2013-03-31 17:13:00,
2013-03-31 12:18:00,37.3,23.5,29.89,NNW,331,5.0,13.0,57,0.00,,---,0.00,VWS V13.01,2013-03-31 17:18:00,
2013-03-31 12:23:00,37.5,23.2,29.89,WNW,294,12.0,17.0,56,0.00,,---,0.00,VWS V13.01,2013-03-31 17:23:00,
2013-03-31 12:28:00,37.7,23.4,29.89,NW,323,18.0,18.0,56,0.00,,---,0.00,VWS V13.01,2013-03-31 17:28:00,
2013-03-31 12:33:00,37.4,21.9,29.89,NW,304,7.0,15.0,53,0.00,,---,0.00,VWS V13.01,2013-03-31 17:33:00,
2013-03-31 12:38:00,37.4,24.0,29.89,West,268,6.0,17.0,58,0.00,,---,0.00,VWS V13.01,2013-03-31 17:38:00,
2013-03-31 12:43:00,37.4,23.1,29.90,NW,309,11.0,17.0,56,0.00,,---,0.00,VWS V13.01,2013-03-31 17:43:00,
2013-03-31 12:48:00,37.3,23.5,29.89,WNW,303,4.0,13.0,57,0.00,,---,0.00,VWS V13.01,2013-03-31 17:48:00,
2013-03-31 12:53:00,37.3,20.9,29.90,NW,314,10.0,15.0,51,0.00,,---,0.00,VWS V13.01,2013-03-31 17:53:00,
2013-03-31 12:58:00,37.3,21.3,29.90,WNW,297,5.0,21.0,52,0.00,,---,0.00,VWS V13.01,2013-03-31 17:58:00,
2013-03-31 13:03:00,37.6,20.7,29.90,WNW,296,6.0,9.0,50,0.00,,---,0.00,VWS V13.01,2013-03-31 18:03:00,
2013-03-31 13:08:00,37.5,21.0,29.90,NW,322,3.0,13.0,51,0.00,,---,0.00,VWS V13.01,2013-03-31 18:08:00,
2013-03-31 13:13:00,37.8,22.7,29.90,NW,325,2.0,13.0,54,0.00,,---,0.00,VWS V13.01,2013-03-31 18:13:00,
2013-03-31 13:18:00,37.9,22.3,29.90,WNW,298,10.0,15.0,53,0.00,,---,0.00,VWS V13.01,2013-03-31 18:18:00,
2013-03-31 13:23:00,37.7,22.1,29.90,NW,308,11.0,17.0,53,0.00,,---,0.00,VWS V13.01,2013-03-31 18:23:00,
2013-03-31 13:28:00,37.6,19.2,29.91,WNW,292,7.0,17.0,47,0.00,,---,0.00,VWS V13.01,2013-03-31 18:28:00,
2013-03-31 13:33:00,37.4,19.0,29.91,West,281,9.0,18.0,47,0.00,,---,0.00,VWS V13.01,2013-03-31 18:33:00,
2013-03-31 13:38:00,37.1,19.7,29.91,NW,307,4.0,22.0,49,0.00,,---,0.00,VWS V13.01,2013-03-31 18:38:00,
2013-03-31 13:43:00,37.0,20.6,29.91,WNW,295,5.0,22.0,51,0.00,,---,0.00,VWS V13.01,2013-03-31 18:43:00,
2013-03-31 13:48:00,36.7,20.3,29.92,WNW,291,8.0,13.0,51,0.00,,---,0.00,VWS V13.01,2013-03-31 18:48:00,
2013-03-31 13:53:00,36.7,20.8,29.92,WNW,296,12.0,15.0,52,0.00,,---,0.00,VWS V13.01,2013-03-31 18:53:00,
2013-03-31 13:58:00,36.9,20.0,29.92,WNW,296,3.0,18.0,50,0.00,,---,0.00,VWS V13.01,2013-03-31 18:58:00,
2013-03-31 14:03:00,36.8,19.5,29.92,NNW,331,2.0,13.0,49,0.00,,---,0.00,VWS V13.01,2013-03-31 19:03:00,
2013-03-31 14:08:00,37.1,20.7,29.92,West,281,1.0,13.0,51,0.00,,---,0.00,VWS V13.01,2013-03-31 19:08:00,
2013-03-31 14:13:00,37.2,21.2,29.92,NW,316,2.0,13.0,52,0.00,,---,0.00,VWS V13.01,2013-03-31 19:13:00,
2013-03-31 14:18:00,37.2,21.2,29.92,NNW,331,5.0,9.0,52,0.00,,---,0.00,VWS V13.01,2013-03-31 19:18:00,
2013-03-31 14:23:00,37.0,19.1,29.93,NNW,336,12.0,20.0,48,0.00,,---,0.00,VWS V13.01,2013-03-31 19:23:00,
2013-03-31 14:28:00,36.8,19.0,29.92,West,265,6.0,20.0,48,0.00,,---,0.00,VWS V13.01,2013-03-31 19:28:00,
2013-03-31 14:33:00,36.4,19.1,29.93,NW,310,5.0,14.0,49,0.00,,---,0.00,VWS V13.01,2013-03-31 19:33:00,
2013-03-31 14:38:00,36.5,17.2,29.93,NW,324,4.0,20.0,45,0.00,,---,0.00,VWS V13.01,2013-03-31 19:38:00,
2013-03-31 14:43:00,36.6,18.8,29.93,West,261,9.0,20.0,48,0.00,,---,0.00,VWS V13.01,2013-03-31 19:43:00,
2013-03-31 14:48:00,36.4,17.1,29.93,NW,315,4.0,17.0,45,0.00,,---,0.00,VWS V13.01,2013-03-31 19:48:00,
2013-03-31 14:53:00,36.6,18.8,29.93,North,11,1.0,17.0,48,0.00,,---,0.00,VWS V13.01,2013-03-31 19:53:00,
2013-03-31 14:58:00,37.1,18.2,29.93,North,355,11.0,17.0,46,0.00,,---,0.00,VWS V13.01,2013-03-31 19:58:00,
2013-03-31 15:03:00,37.1,19.2,29.93,NNW,340,7.0,10.0,48,0.00,,---,0.00,VWS V13.01,2013-03-31 20:03:00,
2013-03-31 15:08:00,36.9,19.5,29.93,NW,319,12.0,13.0,49,0.00,,---,0.00,VWS V13.01,2013-03-31 20:08:00,
2013-03-31 15:13:00,36.3,19.0,29.93,West,279,3.0,20.0,49,0.00,,---,0.00,VWS V13.01,2013-03-31 20:13:00,
2013-03-31 15:18:00,36.2,19.4,29.93,West,267,7.0,10.0,50,0.00,,---,0.00,VWS V13.01,2013-03-31 20:18:00,
2013-03-31 15:23:00,36.3,19.5,29.93,NW,326,9.0,16.0,50,0.00,,---,0.00,VWS V13.01,2013-03-31 20:23:00,
2013-03-31 15:28:00,36.2,18.4,29.93,West,276,4.0,16.0,48,0.00,,---,0.00,VWS V13.01,2013-03-31 20:28:00,
2013-03-31 15:33:00,36.0,18.7,29.94,WNW,286,7.0,18.0,49,0.00,,---,0.00,VWS V13.01,2013-03-31 20:33:00,
2013-03-31 15:38:00,35.7,17.5,29.94,West,277,3.0,18.0,47,0.00,,---,0.00,VWS V13.01,2013-03-31 20:38:00,
2013-03-31 15:44:00,35.4,17.7,29.94,NW,304,7.0,18.0,48,0.00,,---,0.00,VWS V13.01,2013-03-31 20:44:00,
2013-03-31 15:48:00,35.5,16.8,29.94,NNW,342,6.0,14.0,46,0.00,,---,0.00,VWS V13.01,2013-03-31 20:48:00,
2013-03-31 15:54:00,35.6,18.8,29.94,NW,321,3.0,16.0,50,0.00,,---,0.00,VWS V13.01,2013-03-31 20:54:00,
2013-03-31 15:59:00,35.5,19.2,29.94,NW,322,6.0,16.0,51,0.00,,---,0.00,VWS V13.01,2013-03-31 20:59:00,
2013-03-31 16:04:00,35.5,18.2,29.94,WNW,300,12.0,18.0,49,0.00,,---,0.00,VWS V13.01,2013-03-31 21:04:00,
2013-03-31 16:09:00,35.6,19.3,29.94,West,276,7.0,18.0,51,0.00,,---,0.00,VWS V13.01,2013-03-31 21:09:00,
2013-03-31 16:14:00,35.5,18.2,29.94,WNW,283,3.0,18.0,49,0.00,,---,0.00,VWS V13.01,2013-03-31 21:14:00,
2013-03-31 16:19:00,35.3,20.3,29.95,WNW,300,10.0,11.0,54,0.00,,---,0.00,VWS V13.01,2013-03-31 21:19:00,
2013-03-31 16:24:00,35.3,19.9,29.95,WNW,287,11.0,15.0,53,0.00,,---,0.00,VWS V13.01,2013-03-31 21:24:00,
2013-03-31 16:29:00,35.7,19.4,29.95,NNW,328,1.0,15.0,51,0.00,,---,0.00,VWS V13.01,2013-03-31 21:29:00,
2013-03-31 16:34:00,36.0,20.1,29.95,West,259,2.0,9.0,52,0.00,,---,0.00,VWS V13.01,2013-03-31 21:34:00,
2013-03-31 16:39:00,36.1,19.7,29.95,WNW,296,5.0,13.0,51,0.00,,---,0.00,VWS V13.01,2013-03-31 21:39:00,
2013-03-31 16:44:00,36.1,19.3,29.95,NNW,329,10.0,13.0,50,0.00,,---,0.00,VWS V13.01,2013-03-31 21:44:00,
2013-03-31 16:49:00,36.1,18.8,29.95,WNW,299,1.0,12.0,49,0.00,,---,0.00,VWS V13.01,2013-03-31 21:49:00,
2013-03-31 16:54:00,36.0,19.6,29.95,WNW,290,9.0,13.0,51,0.00,,---,0.00,VWS V13.01,2013-03-31 21:54:00,
2013-03-31 16:59:00,35.7,19.4,29.95,WNW,287,3.0,13.0,51,0.00,,---,0.00,VWS V13.01,2013-03-31 21:59:00,
2013-03-31 17:04:00,35.7,18.4,29.96,West,272,6.0,14.0,49,0.00,,---,0.00,VWS V13.01,2013-03-31 22:04:00,
2013-03-31 17:09:00,35.5,18.2,29.96,WNW,294,5.0,15.0,49,0.00,,---,0.00,VWS V13.01,2013-03-31 22:09:00,
2013-03-31 17:14:00,35.7,18.9,29.96,NNW,348,5.0,15.0,50,0.00,,---,0.00,VWS V13.01,2013-03-31 22:14:00,
2013-03-31 17:19:00,35.7,19.8,29.96,NW,306,10.0,14.0,52,0.00,,---,0.00,VWS V13.01,2013-03-31 22:19:00,
2013-03-31 17:24:00,35.2,20.7,29.96,WNW,300,8.0,16.0,55,0.00,,---,0.00,VWS V13.01,2013-03-31 22:24:00,
2013-03-31 17:29:00,34.9,20.0,29.96,NW,306,4.0,16.0,54,0.00,,---,0.00,VWS V13.01,2013-03-31 22:29:00,
2013-03-31 17:34:00,34.9,19.5,29.97,West,267,7.0,12.0,53,0.00,,---,0.00,VWS V13.01,2013-03-31 22:34:00,
2013-03-31 17:39:00,34.8,20.7,29.97,WSW,254,11.0,12.0,56,0.00,,---,0.00,VWS V13.01,2013-03-31 22:39:00,
2013-03-31 17:44:00,34.4,20.8,29.97,WNW,300,13.0,14.0,57,0.00,,---,0.00,VWS V13.01,2013-03-31 22:44:00,
2013-03-31 17:49:00,34.4,20.3,29.97,WNW,290,3.0,9.0,56,0.00,,---,0.00,VWS V13.01,2013-03-31 22:49:00,
2013-03-31 17:54:00,34.4,20.3,29.97,WNW,302,6.0,14.0,56,0.00,,---,0.00,VWS V13.01,2013-03-31 22:54:00,
2013-03-31 17:59:00,34.0,20.8,29.97,WSW,250,5.0,14.0,58,0.00,,---,0.00,VWS V13.01,2013-03-31 22:59:00,
2013-03-31 18:04:00,33.7,20.9,29.98,NW,311,12.0,15.0,59,0.00,,---,0.00,VWS V13.01,2013-03-31 23:04:00,
2013-03-31 18:09:00,33.2,20.0,29.98,WNW,292,7.0,19.0,58,0.00,,---,0.00,VWS V13.01,2013-03-31 23:09:00,
2013-03-31 18:14:00,33.0,20.2,29.98,WNW,300,7.0,19.0,59,0.00,,---,0.00,VWS V13.01,2013-03-31 23:14:00,
2013-03-31 18:19:00,33.0,19.9,29.99,NW,304,4.0,12.0,58,0.00,,---,0.00,VWS V13.01,2013-03-31 23:19:00,
2013-03-31 18:24:00,32.8,20.1,29.99,West,263,7.0,16.0,59,0.00,,---,0.00,VWS V13.01,2013-03-31 23:24:00,
2013-03-31 18:29:00,32.7,21.1,29.99,NW,317,5.0,16.0,62,0.00,,---,0.00,VWS V13.01,2013-03-31 23:29:00,
2013-03-31 18:34:00,32.5,20.9,30.00,WNW,298,5.0,19.0,62,0.00,,---,0.00,VWS V13.01,2013-03-31 23:34:00,
2013-03-31 18:39:00,32.4,20.1,30.00,NW,317,5.0,19.0,60,0.00,,---,0.00,VWS V13.01,2013-03-31 23:39:00,
2013-03-31 18:44:00,32.3,19.6,30.00,NW,307,6.0,19.0,59,0.00,,---,0.00,VWS V13.01,2013-03-31 23:44:00,
2013-03-31 18:49:00,32.1,19.8,30.00,West,276,6.0,11.0,60,0.00,,---,0.00,VWS V13.01,2013-03-31 23:49:00,
2013-03-31 18:54:00,31.9,19.2,30.00,WSW,250,3.0,11.0,59,0.00,,---,0.00,VWS V13.01,2013-03-31 23:54:00,
2013-03-31 18:59:00,31.4,19.5,30.00,West,267,11.0,12.0,61,0.00,,---,0.00,VWS V13.01,2013-03-31 23:59:00,
2013-03-31 19:04:00,31.0,19.1,30.01,WNW,296,6.0,10.0,61,0.00,,---,0.00,VWS V13.01,2013-04-01 00:04:00,
2013-03-31 19:09:00,30.6,18.8,30.01,WNW,284,5.0,14.0,61,0.00,,---,0.00,VWS V13.01,2013-04-01 00:09:00,
2013-03-31 19:14:00,30.3,19.6,30.01,WNW,298,5.0,14.0,64,0.00,,---,0.00,VWS V13.01,2013-04-01 00:14:00,
2013-03-31 19:19:00,29.9,19.2,30.01,WNW,300,3.0,11.0,64,0.00,,---,0.00,VWS V13.01,2013-04-01 00:19:00,
2013-03-31 19:24:00,29.7,19.4,30.02,WNW,294,6.0,13.0,65,0.00,,---,0.00,VWS V13.01,2013-04-01 00:24:00,
2013-03-31 19:29:00,29.4,19.1,30.02,West,273,3.0,13.0,65,0.00,,---,0.00,VWS V13.01,2013-04-01 00:29:00,
2013-03-31 19:34:00,29.3,19.0,30.02,West,281,9.0,11.0,65,0.00,,---,0.00,VWS V13.01,2013-04-01 00:34:00,
2013-03-31 19:39:00,29.0,18.7,30.02,West,261,7.0,15.0,65,0.00,,---,0.00,VWS V13.01,2013-04-01 00:39:00,
2013-03-31 19:44:00,28.8,18.5,30.03,WNW,296,8.0,15.0,65,0.00,,---,0.00,VWS V13.01,2013-04-01 00:44:00,
2013-03-31 19:49:00,28.6,18.7,30.03,West,259,7.0,11.0,66,0.00,,---,0.00,VWS V13.01,2013-04-01 00:49:00,
2013-03-31 19:54:00,28.3,18.4,30.03,West,263,11.0,12.0,66,0.00,,---,0.00,VWS V13.01,2013-04-01 00:54:00,
2013-03-31 19:59:00,28.1,18.2,30.03,WNW,286,5.0,15.0,66,0.00,,---,0.00,VWS V13.01,2013-04-01 00:59:00,
2013-03-31 20:04:00,28.0,18.1,30.03,NNW,336,2.0,8.0,66,0.00,,---,0.00,VWS V13.01,2013-04-01 01:04:00,
2013-03-31 20:09:00,27.8,18.3,30.04,West,277,12.0,13.0,67,0.00,,---,0.00,VWS V13.01,2013-04-01 01:09:00,
2013-03-31 20:14:00,27.5,18.0,30.04,NW,304,2.0,13.0,67,0.00,,---,0.00,VWS V13.01,2013-04-01 01:14:00,
2013-03-31 20:19:00,27.2,18.0,30.04,WNW,285,3.0,11.0,68,0.00,,---,0.00,VWS V13.01,2013-04-01 01:19:00,
2013-03-31 20:24:00,27.1,18.0,30.05,West,272,7.0,13.0,68,0.00,,---,0.00,VWS V13.01,2013-04-01 01:24:00,
2013-03-31 20:29:00,26.9,17.8,30.05,WNW,292,4.0,13.0,68,0.00,,---,0.00,VWS V13.01,2013-04-01 01:29:00,
2013-03-31 20:34:00,26.6,17.8,30.06,NW,307,4.0,12.0,69,0.00,,---,0.00,VWS V13.01,2013-04-01 01:34:00,
2013-03-31 20:39:00,26.4,17.3,30.06,WNW,295,3.0,14.0,68,0.00,,---,0.00,VWS V13.01,2013-04-01 01:39:00,
2013-03-31 20:44:00,26.2,17.4,30.06,WNW,295,11.0,14.0,69,0.00,,---,0.00,VWS V13.01,2013-04-01 01:44:00,
2013-03-31 20:49:00,26.1,17.0,30.06,West,279,5.0,14.0,68,0.00,,---,0.00,VWS V13.01,2013-04-01 01:49:00,
2013-03-31 20:54:00,25.9,16.8,30.07,NW,306,2.0,14.0,68,0.00,,---,0.00,VWS V13.01,2013-04-01 01:54:00,
2013-03-31 20:59:00,25.7,16.6,30.07,West,275,8.0,14.0,68,0.00,,---,0.00,VWS V13.01,2013-04-01 01:59:00,
2013-03-31 21:04:00,25.5,16.4,30.07,WNW,300,3.0,10.0,68,0.00,,---,0.00,VWS V13.01,2013-04-01 02:04:00,
2013-03-31 21:09:00,25.3,16.6,30.08,WNW,294,5.0,15.0,69,0.00,,---,0.00,VWS V13.01,2013-04-01 02:09:00,
2013-03-31 21:14:00,25.2,16.5,30.08,NW,304,1.0,15.0,69,0.00,,---,0.00,VWS V13.01,2013-04-01 02:14:00,
2013-03-31 21:19:00,25.1,16.7,30.08,WNW,293,1.0,10.0,70,0.00,,---,0.00,VWS V13.01,2013-04-01 02:19:00,
2013-03-31 21:24:00,24.9,16.8,30.08,WNW,299,1.0,12.0,71,0.00,,---,0.00,VWS V13.01,2013-04-01 02:24:00,
2013-03-31 21:29:00,24.8,16.4,30.08,WNW,302,4.0,12.0,70,0.00,,---,0.00,VWS V13.01,2013-04-01 02:29:00,
2013-03-31 21:34:00,24.6,16.5,30.09,WNW,299,6.0,11.0,71,0.00,,---,0.00,VWS V13.01,2013-04-01 02:34:00,
2013-03-31 21:39:00,24.5,16.5,30.09,WNW,283,9.0,15.0,71,0.00,,---,0.00,VWS V13.01,2013-04-01 02:39:00,
2013-03-31 21:44:00,24.4,16.7,30.09,West,272,0.0,17.0,72,0.00,,---,0.00,VWS V13.01,2013-04-01 02:44:00,
2013-03-31 21:49:00,24.2,16.2,30.10,West,276,6.0,14.0,71,0.00,,---,0.00,VWS V13.01,2013-04-01 02:49:00,
2013-03-31 21:54:00,24.1,16.4,30.10,WNW,290,1.0,14.0,72,0.00,,---,0.00,VWS V13.01,2013-04-01 02:54:00,
2013-03-31 21:59:00,23.9,16.2,30.10,West,279,6.0,14.0,72,0.00,,---,0.00,VWS V13.01,2013-04-01 02:59:00,
2013-03-31 22:04:00,23.7,16.3,30.10,West,272,10.0,10.0,73,0.00,,---,0.00,VWS V13.01,2013-04-01 03:04:00,
2013-03-31 22:09:00,23.6,16.2,30.11,SW,231,0.0,10.0,73,0.00,,---,0.00,VWS V13.01,2013-04-01 03:09:00,
2013-03-31 22:14:00,23.5,16.1,30.11,WNW,288,2.0,12.0,73,0.00,,---,0.00,VWS V13.01,2013-04-01 03:14:00,
2013-03-31 22:20:00,23.3,15.9,30.11,WNW,295,2.0,9.0,73,0.00,,---,0.00,VWS V13.01,2013-04-01 03:20:00,
2013-03-31 22:25:00,23.2,15.8,30.11,WNW,288,4.0,11.0,73,0.00,,---,0.00,VWS V13.01,2013-04-01 03:25:00,
2013-03-31 22:30:00,23.1,15.8,30.11,NW,304,7.0,11.0,73,0.00,,---,0.00,VWS V13.01,2013-04-01 03:30:00,
2013-03-31 22:35:00,22.9,15.6,30.12,WSW,253,7.0,10.0,73,0.00,,---,0.00,VWS V13.01,2013-04-01 03:35:00,
2013-03-31 22:40:00,22.9,15.6,30.12,West,265,0.0,10.0,73,0.00,,---,0.00,VWS V13.01,2013-04-01 03:40:00,
2013-03-31 22:45:00,22.7,15.7,30.12,WNW,298,5.0,10.0,74,0.00,,---,0.00,VWS V13.01,2013-04-01 03:45:00,
2013-03-31 22:50:00,22.6,15.6,30.12,WNW,290,3.0,9.0,74,0.00,,---,0.00,VWS V13.01,2013-04-01 03:50:00,
2013-03-31 22:55:00,22.5,15.5,30.12,WNW,292,2.0,10.0,74,0.00,,---,0.00,VWS V13.01,2013-04-01 03:55:00,
2013-03-31 23:00:00,22.4,15.4,30.13,WNW,300,7.0,10.0,74,0.00,,---,0.00,VWS V13.01,2013-04-01 04:00:00,
2013-03-31 23:05:00,22.2,15.2,30.12,WNW,284,2.0,6.0,74,0.00,,---,0.00,VWS V13.01,2013-04-01 04:05:00,
2013-03-31 23:10:00,22.1,15.1,30.12,WNW,287,4.0,12.0,74,0.00,,---,0.00,VWS V13.01,2013-04-01 04:10:00,
2013-03-31 23:12:00,22.1,15.4,30.13,NW,306,7.0,12.0,75,0.00,,---,0.00,VWS V13.01,2013-04-01 04:12:00,
2013-03-31 23:17:00,22.0,15.0,30.13,WNW,286,3.0,12.0,74,0.00,,---,0.00,VWS V13.01,2013-04-01 04:17:00,
2013-03-31 23:22:00,21.8,14.8,30.13,West,280,2.0,9.0,74,0.00,,---,0.00,VWS V13.01,2013-04-01 04:22:00,
2013-03-31 23:27:00,21.7,15.0,30.13,West,281,5.0,9.0,75,0.00,,---,0.00,VWS V13.01,2013-04-01 04:27:00,
2013-03-31 23:32:00,21.5,14.8,30.13,WNW,284,2.0,4.0,75,0.00,,---,0.00,VWS V13.01,2013-04-01 04:32:00,
2013-03-31 23:37:00,21.4,14.7,30.13,WNW,284,3.0,12.0,75,0.00,,---,0.00,VWS V13.01,2013-04-01 04:37:00,
2013-03-31 23:42:00,21.3,14.6,30.13,West,276,3.0,12.0,75,0.00,,---,0.00,VWS V13.01,2013-04-01 04:42:00,
2013-03-31 23:47:00,21.1,14.4,30.13,WNW,302,3.0,3.0,75,0.00,,---,0.00,VWS V13.01,2013-04-01 04:47:00,
2013-03-31 23:52:00,21.1,14.4,30.13,West,273,0.0,8.0,75,0.00,,---,0.00,VWS V13.01,2013-04-01 04:52:00,
2013-03-31 23:57:00,21.0,14.3,30.13,West,281,2.0,9.0,75,0.00,,---,0.00,VWS V13.01,2013-04-01 04:57:00,